createdAt,value
2018-06-12T00:02:21.538Z,97053.59
2018-06-12T00:04:50.836Z,97054.84
2018-06-12T00:07:19.785Z,97056.91
2018-06-12T00:09:48.219Z,97057.55
2018-06-12T00:12:16.613Z,97060.28
2018-06-12T00:14:45.138Z,97069.59
2018-06-12T00:17:13.556Z,97077.55
2018-06-12T00:19:42.669Z,97071.83
2018-06-12T00:22:11.122Z,97071.03
2018-06-12T00:24:39.583Z,97072.84
2018-06-12T00:27:08.053Z,97065.73
2018-06-12T00:29:36.510Z,97069.31
2018-06-12T00:32:04.977Z,97068.52
2018-06-12T00:34:33.380Z,97073.83
2018-06-12T00:37:01.906Z,97065.30
2018-06-12T00:39:30.410Z,97069.60
2018-06-12T00:41:58.972Z,97062.81
2018-06-12T00:44:27.675Z,97068.80
2018-06-12T00:46:56.858Z,97061.72
2018-06-12T00:49:25.375Z,97062.15
2018-06-12T00:51:53.843Z,97063.95
2018-06-12T00:54:22.275Z,97061.50
2018-06-12T00:57:01.903Z,97057.06
2018-06-12T00:59:30.477Z,97045.61
2018-06-12T01:01:58.907Z,97056.70
2018-06-12T01:04:27.403Z,97058.28
2018-06-12T01:06:56.579Z,97055.28
2018-06-12T01:09:25.027Z,97053.84
2018-06-12T01:11:53.502Z,97053.27
2018-06-12T01:14:22.031Z,97050.33
2018-06-12T01:16:50.706Z,97049.67
2018-06-12T01:19:19.888Z,97049.02
2018-06-12T01:21:48.309Z,97057.50
2018-06-12T01:24:17.167Z,97061.99
2018-06-12T01:26:45.600Z,97067.09
2018-06-12T01:29:14.190Z,97062.33
2018-06-12T01:31:42.635Z,97058.90
2018-06-12T01:34:11.064Z,97068.62
2018-06-12T01:36:39.565Z,97068.62
2018-06-12T01:39:08.515Z,97063.72
2018-06-12T01:41:37.345Z,97064.51
2018-06-12T01:44:05.789Z,97063.94
2018-06-12T01:46:34.414Z,97067.45
2018-06-12T01:49:02.876Z,97072.45
2018-06-12T01:51:31.346Z,97077.00
2018-06-12T01:53:59.735Z,97072.78
2018-06-12T01:56:28.912Z,97075.13
2018-06-12T01:58:57.346Z,97080.00
2018-06-12T02:01:28.799Z,97073.77
2018-06-12T02:03:57.981Z,97077.28
2018-06-12T02:06:26.433Z,97065.89
2018-06-12T02:08:55.503Z,97072.27
2018-06-12T02:11:24.575Z,97060.57
2018-06-12T02:13:53.014Z,97065.17
2018-06-12T02:16:21.501Z,97073.60
2018-06-12T02:18:50.008Z,97070.55
2018-06-12T02:21:18.461Z,97070.17
2018-06-12T02:23:47.039Z,97061.64
2018-06-12T02:26:15.501Z,97057.56
2018-06-12T02:28:44.536Z,97061.21
2018-06-12T02:31:12.998Z,97061.43
2018-06-12T02:33:41.555Z,97066.87
2018-06-12T02:36:10.038Z,97058.70
2018-06-12T02:38:38.637Z,97055.98
2018-06-12T02:41:07.866Z,97056.80
2018-06-12T02:43:36.314Z,97053.34
2018-06-12T02:46:04.967Z,97055.41
2018-06-12T02:48:33.454Z,97049.88
2018-06-12T02:51:01.901Z,97050.31
2018-06-12T02:53:30.370Z,97047.16
2018-06-12T02:55:58.831Z,97050.02
2018-06-12T02:58:28.974Z,97055.23
2018-06-12T03:00:57.422Z,97046.98
2018-06-12T03:03:25.871Z,97047.38
2018-06-12T03:05:54.373Z,97045.91
2018-06-12T03:08:22.990Z,97046.75
2018-06-12T03:10:51.562Z,97038.33
2018-06-12T03:13:20.022Z,97042.41
2018-06-12T03:15:48.561Z,97036.98
2018-06-12T03:18:17.118Z,97032.34
2018-06-12T03:20:46.263Z,97036.34
2018-06-12T03:23:14.829Z,97033.80
2018-06-12T03:25:43.275Z,97039.17
2018-06-12T03:28:11.831Z,97039.13
2018-06-12T03:30:41.154Z,97044.61
2018-06-12T03:33:09.587Z,97061.80
2018-06-12T03:35:38.223Z,97058.23
2018-06-12T03:38:06.767Z,97060.46
2018-06-12T03:40:35.178Z,97061.18
2018-06-12T03:43:03.884Z,97055.15
2018-06-12T03:45:32.401Z,97056.73
2018-06-12T03:48:00.902Z,97059.01
2018-06-12T03:50:29.540Z,97060.04
2018-06-12T03:52:58.572Z,97050.08
2018-06-12T03:55:27.048Z,97058.18
2018-06-12T03:57:56.277Z,97061.40
2018-06-12T04:00:25.187Z,97050.78
2018-06-12T04:03:00.407Z,97043.12
2018-06-12T04:05:28.850Z,97048.55
2018-06-12T04:07:57.349Z,97039.47
2018-06-12T04:10:25.786Z,97043.34
2018-06-12T04:12:55.532Z,97046.02
2018-06-12T04:15:24.116Z,97036.27
2018-06-12T04:17:53.210Z,97041.23
2018-06-12T04:20:22.291Z,97038.16
2018-06-12T04:22:50.817Z,97031.27
2018-06-12T04:25:19.603Z,97038.59
2018-06-12T04:27:48.115Z,97034.25
2018-06-12T04:30:17.265Z,97026.83
2018-06-12T04:32:45.849Z,97027.75
2018-06-12T04:35:14.871Z,97022.48
2018-06-12T04:37:43.318Z,97020.98
2018-06-12T04:40:11.919Z,97017.33
2018-06-12T04:42:40.706Z,97019.20
2018-06-12T04:45:09.328Z,97012.61
2018-06-12T04:47:37.885Z,97022.55
2018-06-12T04:50:06.479Z,97020.52
2018-06-12T04:52:35.726Z,97018.02
2018-06-12T04:55:04.221Z,97023.15
2018-06-12T04:57:32.787Z,97030.83
2018-06-12T05:00:01.522Z,97028.25
2018-06-12T05:02:30.224Z,97035.55
2018-06-12T05:04:58.708Z,97031.43
2018-06-12T05:07:27.188Z,97027.63
2018-06-12T05:09:55.654Z,97027.45
2018-06-12T05:12:24.151Z,97024.22
2018-06-12T05:14:52.681Z,97027.27
2018-06-12T05:17:21.334Z,97024.96
2018-06-12T05:19:50.882Z,97026.49
2018-06-12T05:22:19.440Z,97029.81
2018-06-12T05:24:47.964Z,97027.67
2018-06-12T05:27:16.651Z,97023.00
2018-06-12T05:29:45.227Z,97024.40
2018-06-12T05:32:13.771Z,97024.48
2018-06-12T05:34:42.866Z,97029.45
2018-06-12T05:37:11.584Z,97031.88
2018-06-12T05:39:40.017Z,97037.13
2018-06-12T05:42:09.122Z,97040.92
2018-06-12T05:44:37.667Z,97044.01
2018-06-12T05:47:06.189Z,97046.73
2018-06-12T05:49:34.655Z,97050.31
2018-06-12T05:52:03.119Z,97054.13
2018-06-12T05:54:31.617Z,97048.16
2018-06-12T05:57:00.110Z,97058.49
2018-06-12T05:59:28.639Z,97057.72
2018-06-12T06:01:57.234Z,97058.14
2018-06-12T06:04:26.143Z,97069.64
2018-06-12T06:06:54.667Z,97069.75
2018-06-12T06:09:24.333Z,97072.66
2018-06-12T06:11:53.518Z,97072.50
2018-06-12T06:14:22.052Z,97072.64
2018-06-12T06:16:50.537Z,97071.88
2018-06-12T06:19:19.093Z,97074.09
2018-06-12T06:21:47.652Z,97069.25
2018-06-12T06:24:16.597Z,97076.20
2018-06-12T06:26:45.103Z,97069.63
2018-06-12T06:29:13.596Z,97073.17
2018-06-12T06:31:42.309Z,97071.91
2018-06-12T06:34:10.870Z,97072.19
2018-06-12T06:36:39.404Z,97076.66
2018-06-12T06:39:08.311Z,97073.75
2018-06-12T06:41:36.829Z,97075.64
2018-06-12T06:44:05.290Z,97077.23
2018-06-12T06:46:34.428Z,97079.39
2018-06-12T06:49:02.982Z,97083.14
2018-06-12T06:51:31.486Z,97086.25
2018-06-12T06:54:00.547Z,97077.57
2018-06-12T06:56:29.028Z,97080.42
2018-06-12T06:58:57.459Z,97077.11
2018-06-12T07:01:26.116Z,97082.84
2018-06-12T07:03:54.616Z,97082.66
2018-06-12T07:06:23.788Z,97090.57
2018-06-12T07:08:52.706Z,97081.19
2018-06-12T07:11:21.242Z,97078.67
2018-06-12T07:13:49.842Z,97078.84
2018-06-12T07:16:18.432Z,97080.57
2018-06-12T07:18:47.491Z,97078.31
2018-06-12T07:21:20.941Z,97077.67
2018-06-12T07:23:49.500Z,97084.30
2018-06-12T07:26:17.980Z,97079.09
2018-06-12T07:28:46.497Z,97078.85
2018-06-12T07:31:14.972Z,97080.86
2018-06-12T07:33:43.441Z,97078.38
2018-06-12T07:36:12.147Z,97080.45
2018-06-12T07:38:40.552Z,97084.75
2018-06-12T07:41:09.024Z,97080.67
2018-06-12T07:43:38.256Z,97082.66
2018-06-12T07:46:06.792Z,97078.42
2018-06-12T07:48:35.301Z,97084.23
2018-06-12T07:51:03.858Z,97082.91
2018-06-12T07:53:32.462Z,97085.51
2018-06-12T07:56:00.964Z,97077.53
2018-06-12T07:58:29.554Z,97074.79
2018-06-12T08:00:58.005Z,97075.52
2018-06-12T08:03:26.453Z,97075.05
2018-06-12T08:05:54.955Z,97075.15
2018-06-12T08:08:23.508Z,97073.79
2018-06-12T08:10:51.971Z,97070.74
2018-06-12T08:13:20.462Z,97072.19
2018-06-12T08:15:49.039Z,97079.23
2018-06-12T08:18:17.884Z,97075.77
2018-06-12T08:20:46.418Z,97078.41
2018-06-12T08:23:15.824Z,97079.98
2018-06-12T08:25:44.745Z,97078.94
2018-06-12T08:28:13.273Z,97074.89
2018-06-12T08:30:42.251Z,97079.20
2018-06-12T08:33:10.728Z,97077.67
2018-06-12T08:35:39.245Z,97079.25
2018-06-12T08:38:07.939Z,97071.37
2018-06-12T08:40:36.406Z,97082.75
2018-06-12T08:43:05.270Z,97075.09
2018-06-12T08:45:33.721Z,97073.43
2018-06-12T08:48:02.273Z,97080.31
2018-06-12T08:50:30.849Z,97078.45
2018-06-12T08:52:59.435Z,97081.97
2018-06-12T08:55:27.968Z,97073.56
2018-06-12T08:57:56.609Z,97080.44
2018-06-12T09:00:25.104Z,97078.70
2018-06-12T09:02:53.581Z,97074.30
2018-06-12T09:05:22.710Z,97073.14
2018-06-12T09:07:51.237Z,97071.84
2018-06-12T09:10:19.663Z,97070.95
2018-06-12T09:12:48.145Z,97074.37
2018-06-12T09:15:16.695Z,97080.27
2018-06-12T09:17:45.124Z,97079.69
2018-06-12T09:20:13.759Z,97085.40
2018-06-12T09:22:42.255Z,97081.73
2018-06-12T09:25:11.041Z,97075.49
2018-06-12T09:27:44.765Z,97070.38
2018-06-12T09:30:13.353Z,97076.44
2018-06-12T09:32:41.831Z,97076.28
2018-06-12T09:35:10.872Z,97074.00
2018-06-12T09:37:39.418Z,97074.91
2018-06-12T09:40:08.004Z,97081.00
2018-06-12T09:42:36.516Z,97070.02
2018-06-12T09:45:11.853Z,97072.20
2018-06-12T09:47:40.996Z,97075.94
2018-06-12T09:50:09.461Z,97070.60
2018-06-12T09:52:37.952Z,97064.98
2018-06-12T09:55:06.627Z,97064.03
2018-06-12T09:57:35.184Z,97063.79
2018-06-12T10:00:03.779Z,97064.41
2018-06-12T10:02:33.139Z,97059.20
2018-06-12T10:05:01.821Z,97062.89
2018-06-12T10:07:30.371Z,97060.78
2018-06-12T10:10:03.904Z,97062.56
2018-06-12T10:12:32.413Z,97058.67
2018-06-12T10:15:00.958Z,97055.77
2018-06-12T10:17:29.535Z,97047.38
2018-06-12T10:19:57.988Z,97049.61
2018-06-12T10:22:26.457Z,97043.36
2018-06-12T10:24:54.921Z,97046.11
2018-06-12T10:27:23.392Z,97044.52
2018-06-12T10:29:51.842Z,97038.28
2018-06-12T10:32:20.975Z,97034.92
2018-06-12T10:34:49.496Z,97031.57
2018-06-12T10:37:18.288Z,97030.19
2018-06-12T10:39:46.783Z,97033.34
2018-06-12T10:42:15.247Z,97033.16
2018-06-12T10:44:43.806Z,97034.13
2018-06-12T10:47:12.302Z,97036.30
2018-06-12T10:49:40.760Z,97028.82
2018-06-12T10:52:09.313Z,97028.66
2018-06-12T10:54:37.742Z,97023.89
2018-06-12T10:57:06.164Z,97022.31
2018-06-12T10:59:34.625Z,97019.13
2018-06-12T11:02:03.131Z,97021.11
2018-06-12T11:04:31.583Z,97016.77
2018-06-12T11:07:00.033Z,97012.20
2018-06-12T11:09:28.570Z,97006.52
2018-06-12T11:11:57.083Z,97004.94
2018-06-12T11:14:25.572Z,97006.50
2018-06-12T11:16:54.034Z,97005.02
2018-06-12T11:19:22.467Z,97006.57
2018-06-12T11:21:51.048Z,97003.69
2018-06-12T11:24:19.650Z,97010.20
2018-06-12T11:26:48.077Z,97006.12
2018-06-12T11:29:16.515Z,97004.81
2018-06-12T11:31:45.015Z,96997.69
2018-06-12T11:34:13.512Z,96998.50
2018-06-12T11:36:42.029Z,96998.52
2018-06-12T11:39:10.504Z,96993.92
2018-06-12T11:41:39.624Z,96997.64
2018-06-12T11:44:08.225Z,96990.49
2018-06-12T11:46:36.657Z,96983.25
2018-06-12T11:49:05.112Z,96982.28
2018-06-12T11:51:33.559Z,96983.82
2018-06-12T11:54:02.181Z,96993.89
2018-06-12T11:56:31.348Z,97007.97
2018-06-12T11:58:59.872Z,97021.77
2018-06-12T12:01:28.383Z,97020.11
2018-06-12T12:03:57.156Z,97028.87
2018-06-12T12:06:25.630Z,97025.07
2018-06-12T12:08:54.185Z,97021.19
2018-06-12T12:11:22.718Z,97016.78
2018-06-12T12:13:51.216Z,97014.43
2018-06-12T12:16:19.749Z,97008.73
2018-06-12T12:18:48.570Z,97014.44
2018-06-12T12:21:17.548Z,97019.00
2018-06-12T12:23:46.107Z,97018.52
2018-06-12T12:26:14.506Z,97021.30
2018-06-12T12:28:42.984Z,97025.91
2018-06-12T12:31:11.493Z,97025.06
2018-06-12T12:33:39.900Z,97028.41
2018-06-12T12:36:08.459Z,97023.41
2018-06-12T12:38:36.932Z,97026.59
2018-06-12T12:41:05.414Z,97033.03
2018-06-12T12:43:33.998Z,97028.70
2018-06-12T12:46:03.208Z,97032.52
2018-06-12T12:48:31.746Z,97039.84
2018-06-12T12:51:00.191Z,97046.04
2018-06-12T12:53:28.649Z,97047.83
2018-06-12T12:55:57.153Z,97041.72
2018-06-12T12:58:25.595Z,97047.98
2018-06-12T13:00:54.624Z,97042.51
2018-06-12T13:03:23.117Z,97040.77
2018-06-12T13:05:52.219Z,97047.71
2018-06-12T13:08:21.109Z,97047.52
2018-06-12T13:10:49.586Z,97053.60
2018-06-12T13:13:18.059Z,97065.67
2018-06-12T13:15:46.617Z,97068.52
2018-06-12T13:18:15.070Z,97078.05
2018-06-12T13:20:43.658Z,97079.80
2018-06-12T13:23:12.274Z,97069.56
2018-06-12T13:25:41.435Z,97069.38
2018-06-12T13:28:09.984Z,97067.33
2018-06-12T13:30:38.789Z,97068.97
2018-06-12T13:33:07.386Z,97072.36
2018-06-12T13:35:35.859Z,97068.97
2018-06-12T13:38:04.396Z,97069.75
2018-06-12T13:40:32.851Z,97057.41
2018-06-12T13:43:01.523Z,97061.74
2018-06-12T13:45:29.952Z,97056.09
2018-06-12T13:47:58.418Z,97047.95
2018-06-12T13:50:26.943Z,97051.69
2018-06-12T13:52:55.434Z,97055.08
2018-06-12T13:55:24.263Z,97055.56
2018-06-12T13:57:52.870Z,97053.84
2018-06-12T14:00:21.437Z,97050.98
2018-06-12T14:02:49.906Z,97050.43
2018-06-12T14:05:18.424Z,97044.65
2018-06-12T14:07:47.597Z,97046.70
2018-06-12T14:10:16.221Z,97044.35
2018-06-12T14:12:44.667Z,97047.16
2018-06-12T14:15:13.196Z,97050.39
2018-06-12T14:17:41.720Z,97048.16
2018-06-12T14:20:10.263Z,97048.74
2018-06-12T14:22:38.800Z,97037.91
2018-06-12T14:25:07.406Z,97050.41
2018-06-12T14:27:35.927Z,97049.86
2018-06-12T14:30:04.727Z,97054.27
2018-06-12T14:32:34.141Z,97036.64
2018-06-12T14:35:02.671Z,97039.30
2018-06-12T14:37:31.809Z,97043.31
2018-06-12T14:40:00.308Z,97044.32
2018-06-12T14:42:28.906Z,97049.47
2018-06-12T14:44:57.936Z,97051.23
2018-06-12T14:47:26.507Z,97043.02
2018-06-12T14:49:55.515Z,97038.02
2018-06-12T14:52:24.838Z,97033.53
2018-06-12T14:54:55.441Z,97023.17
2018-06-12T14:57:25.122Z,97025.37
2018-06-12T14:59:53.727Z,97015.45
2018-06-12T15:02:22.821Z,97012.18
2018-06-12T15:04:51.669Z,97021.02
2018-06-12T15:07:21.285Z,97018.95
2018-06-12T15:09:50.793Z,97023.17
2018-06-12T15:12:19.522Z,97017.84
2018-06-12T15:14:48.734Z,97012.00
2018-06-12T15:17:17.579Z,97014.27
2018-06-12T15:19:47.979Z,97012.84
2018-06-12T15:22:17.571Z,97008.88
2018-06-12T15:24:46.181Z,97005.94
2018-06-12T15:27:18.654Z,97000.77
2018-06-12T15:29:48.459Z,96994.00
2018-06-12T15:32:17.535Z,96991.72
2018-06-12T15:34:48.625Z,96997.34
2018-06-12T15:37:22.412Z,96997.90
2018-06-12T15:39:53.117Z,96996.22
2018-06-12T15:42:21.613Z,96990.48
2018-06-12T15:44:51.415Z,96985.69
2018-06-12T15:47:20.379Z,96990.37
2018-06-12T15:49:49.449Z,96992.08
2018-06-12T15:52:18.064Z,96991.96
2018-06-12T15:54:47.239Z,96995.60
2018-06-12T15:57:16.846Z,96995.74
2018-06-12T15:59:45.515Z,96995.41
2018-06-12T16:02:14.033Z,96991.43
2018-06-12T16:04:45.618Z,96987.91
2018-06-12T16:07:14.161Z,96998.56
2018-06-12T16:09:42.963Z,96990.83
2018-06-12T16:12:11.519Z,96978.00
2018-06-12T16:14:40.055Z,96986.89
2018-06-12T16:17:08.643Z,96982.35
2018-06-12T16:19:38.006Z,96982.64
2018-06-12T16:22:06.694Z,96976.50
2018-06-12T16:24:35.292Z,96972.56
2018-06-12T16:27:04.374Z,96972.14
2018-06-12T16:29:32.970Z,96965.74
2018-06-12T16:32:01.668Z,96975.83
2018-06-12T16:34:30.555Z,96972.38
2018-06-12T16:36:59.991Z,96975.11
2018-06-12T16:39:31.406Z,96974.83
2018-06-12T16:42:00.033Z,96968.06
2018-06-12T16:44:28.610Z,96968.17
2018-06-12T16:46:57.916Z,96967.22
2018-06-12T16:49:26.509Z,96963.66
2018-06-12T16:51:55.569Z,96959.44
2018-06-12T16:54:24.747Z,96959.92
2018-06-12T16:56:53.324Z,96954.91
2018-06-12T16:59:22.955Z,96963.62
2018-06-12T17:01:52.544Z,96964.67
2018-06-12T17:04:21.869Z,96967.33
2018-06-12T17:06:51.280Z,96963.22
2018-06-12T17:09:21.518Z,96963.48
2018-06-12T17:11:50.333Z,96958.20
2018-06-12T17:14:19.002Z,96959.52
2018-06-12T17:16:47.549Z,96962.89
2018-06-12T17:19:17.089Z,96960.16
2018-06-12T17:21:45.630Z,96957.63
2018-06-12T17:24:14.244Z,96958.78
2018-06-12T17:26:42.825Z,96959.57
2018-06-12T17:29:12.511Z,96958.00
2018-06-12T17:31:42.328Z,96968.23
2018-06-12T17:34:11.026Z,96961.67
2018-06-12T17:36:39.963Z,96958.53
2018-06-12T17:39:08.567Z,96960.23
2018-06-12T17:41:37.168Z,96964.79
2018-06-12T17:44:05.758Z,96961.98
2018-06-12T17:46:34.307Z,96961.56
2018-06-12T17:49:02.857Z,96962.18
2018-06-12T17:51:31.442Z,96956.41
2018-06-12T17:54:00.271Z,96961.74
2018-06-12T17:56:29.520Z,96966.87
2018-06-12T17:58:58.103Z,96966.84
2018-06-12T18:01:26.681Z,96979.62
2018-06-12T18:03:55.210Z,96980.58
2018-06-12T18:06:24.956Z,96975.23
2018-06-12T18:08:53.442Z,96976.33
2018-06-12T18:11:22.611Z,96971.84
2018-06-12T18:13:52.053Z,96981.08
2018-06-12T18:16:21.353Z,96983.28
2018-06-12T18:18:51.198Z,96978.06
2018-06-12T18:21:19.757Z,96983.23
2018-06-12T18:23:48.354Z,96978.97
2018-06-12T18:26:17.234Z,96981.95
2018-06-12T18:28:46.229Z,96987.09
2018-06-12T18:31:15.583Z,96996.46
2018-06-12T18:33:44.643Z,96997.73
2018-06-12T18:36:13.205Z,96996.14
2018-06-12T18:38:42.084Z,96993.11
2018-06-12T18:41:11.417Z,96981.94
2018-06-12T18:43:40.024Z,96983.16
2018-06-12T18:46:09.014Z,96980.05
2018-06-12T18:48:38.270Z,96981.12
2018-06-12T18:51:07.767Z,96975.20
2018-06-12T18:53:37.301Z,96981.27
2018-06-12T18:56:05.873Z,96977.94
2018-06-12T18:58:34.529Z,96981.34
2018-06-12T19:01:03.066Z,96978.25
2018-06-12T19:03:31.739Z,96987.69
2018-06-12T19:06:00.954Z,96990.31
2018-06-12T19:08:29.930Z,96991.20
2018-06-12T19:10:58.934Z,96986.30
2018-06-12T19:13:28.185Z,96987.59
2018-06-12T19:15:58.443Z,96992.75
2018-06-12T19:18:27.627Z,96992.63
2018-06-12T19:20:58.608Z,96988.05
2018-06-12T19:23:29.514Z,96986.34
2018-06-12T19:25:58.500Z,96988.97
2018-06-12T19:28:29.476Z,96992.02
2018-06-12T19:30:58.872Z,96993.66
2018-06-12T19:33:28.106Z,97004.81
2018-06-12T19:35:58.154Z,97001.55
2018-06-12T19:38:26.988Z,97001.69
2018-06-12T19:40:57.038Z,97006.75
2018-06-12T19:43:25.540Z,97005.90
2018-06-12T19:45:54.280Z,97010.09
2018-06-12T19:48:24.437Z,97019.84
2018-06-12T19:50:53.095Z,97019.09
2018-06-12T19:53:21.643Z,97026.15
2018-06-12T19:55:50.310Z,97028.59
2018-06-12T19:58:19.036Z,97031.75
2018-06-12T20:00:48.695Z,97034.72
2018-06-12T20:03:18.076Z,97028.31
2018-06-12T20:05:47.740Z,97034.58
2018-06-12T20:08:16.382Z,97037.00
2018-06-12T20:10:45.568Z,97048.55
2018-06-12T20:13:14.599Z,97056.59
2018-06-12T20:15:43.325Z,97053.08
2018-06-12T20:18:12.791Z,97052.77
2018-06-12T20:20:41.681Z,97055.98
2018-06-12T20:23:10.525Z,97057.77
2018-06-12T20:25:39.019Z,97064.73
2018-06-12T20:28:08.174Z,97056.84
2018-06-12T20:30:42.492Z,97063.03
2018-06-12T20:33:12.080Z,97058.94
2018-06-12T20:35:42.914Z,97057.98
2018-06-12T20:38:13.131Z,97060.72
2018-06-12T20:40:43.933Z,97061.23
2018-06-12T20:43:15.508Z,97071.05
2018-06-12T20:45:45.957Z,97070.44
2018-06-12T20:48:14.597Z,97066.14
2018-06-12T20:50:44.172Z,97066.98
2018-06-12T20:53:15.221Z,97067.31
2018-06-12T20:55:44.249Z,97069.09
2018-06-12T20:58:13.244Z,97069.80
2018-06-12T21:00:41.956Z,97070.33
2018-06-12T21:03:11.021Z,97072.80
2018-06-12T21:05:40.660Z,97070.23
2018-06-12T21:08:09.572Z,97076.58
2018-06-12T21:10:40.794Z,97075.11
2018-06-12T21:13:10.311Z,97078.71
2018-06-12T21:15:39.222Z,97069.50
2018-06-12T21:18:08.437Z,97068.07
2018-06-12T21:20:37.178Z,97068.97
2018-06-12T21:23:06.347Z,97073.64
2018-06-12T21:25:35.247Z,97071.14
2018-06-12T21:28:03.763Z,97074.57
2018-06-12T21:30:32.492Z,97071.70
2018-06-12T21:33:01.605Z,97071.69
2018-06-12T21:35:30.239Z,97074.84
2018-06-12T21:38:00.695Z,97076.81
2018-06-12T21:40:30.130Z,97071.63
2018-06-12T21:42:58.770Z,97076.69
2018-06-12T21:45:28.236Z,97077.89
2018-06-12T21:47:57.208Z,97081.27
2018-06-12T21:50:25.774Z,97079.16
2018-06-12T21:52:54.683Z,97079.73
2018-06-12T21:55:23.813Z,97081.34
2018-06-12T21:57:54.416Z,97084.75
2018-06-12T22:00:33.897Z,97084.19
2018-06-12T22:03:02.610Z,97090.97
2018-06-12T22:05:31.434Z,97098.41
2018-06-12T22:08:00.056Z,97103.64
2018-06-12T22:10:29.516Z,97092.61
2018-06-12T22:12:58.074Z,97095.55
2018-06-12T22:15:26.699Z,97099.20
2018-06-12T22:17:56.425Z,97102.50
2018-06-12T22:20:24.986Z,97102.26
2018-06-12T22:22:53.557Z,97095.69
2018-06-12T22:25:22.048Z,97104.54
2018-06-12T22:28:09.057Z,97100.48
2018-06-12T22:30:37.701Z,97109.64
2018-06-12T22:33:10.752Z,97105.47
2018-06-12T22:35:39.351Z,97110.50
2018-06-12T22:38:09.520Z,97105.13
2018-06-12T22:40:38.557Z,97102.17
2018-06-12T22:43:07.379Z,97102.75
2018-06-12T22:45:36.263Z,97103.05
2018-06-12T22:48:05.884Z,97115.94
2018-06-12T22:50:35.342Z,97099.39
2018-06-12T22:53:05.008Z,97109.38
2018-06-12T22:55:35.876Z,97113.00
2018-06-12T22:58:04.652Z,97116.55
2018-06-12T23:00:34.257Z,97113.64
2018-06-12T23:03:02.844Z,97123.59
2018-06-12T23:05:31.559Z,97119.08
2018-06-12T23:08:00.687Z,97116.61
2018-06-12T23:10:29.453Z,97125.77
2018-06-12T23:12:58.127Z,97131.25
2018-06-12T23:15:26.668Z,97131.36
2018-06-12T23:17:55.609Z,97128.61
2018-06-12T23:20:35.554Z,97131.31
2018-06-12T23:23:04.276Z,97126.69
2018-06-12T23:25:32.855Z,97129.51
2018-06-12T23:28:01.611Z,97126.58
2018-06-12T23:30:31.787Z,97124.43
2018-06-12T23:33:00.365Z,97125.56
2018-06-12T23:35:29.062Z,97129.09
2018-06-12T23:37:57.555Z,97130.23
2018-06-12T23:40:26.140Z,97128.39
2018-06-12T23:42:54.610Z,97135.74
2018-06-12T23:45:25.463Z,97136.67
2018-06-12T23:47:54.216Z,97129.67
2018-06-12T23:50:23.347Z,97138.17
2018-06-12T23:52:52.222Z,97134.66
2018-06-12T23:55:20.951Z,97129.13
2018-06-12T23:57:49.934Z,97135.00
